Terminal Aerodrome Forecast
Issued by NWS Sterling, VA

Current Version | Previous Version | Text Only | Print | Product List | Glossary Off
Versions: 1 2 3 4 5 6 7 8 9 10 11 12 13 14 15 16 17 18 19

000
FTUS41 KLWX 232331
TAFMRB
TAF
KMRB 232331Z 2400/2424 VRB03KT P6SM SKC
     FM241400 19005KT P6SM SCT200
     FM242300 VRB03KT P6SM BKN090=

USA.gov is the U.S. government's official web portal to all federal, state and local government web resources and services.